Time;durP1;ratioP1;P1;durP2;ratioP2;P2;SDS_P1;SDS_P2;PMS_P1;PMS_P2;Temp;Humidity;BMP_temperature;BMP_pressure;BME280_temperature;BME280_humidity;BME280_pressure;Samples;Min_cycle;Max_cycle;Signal;HPM_P1;HPM_P2
2022/06/30 00:01:34;;;;;;;8.60;7.30;;;18.50;99.90;;;;;;5012277;28;20517;-76
2022/06/30 00:04:00;;;;;;;11.60;7.13;;;18.60;99.90;;;;;;5012508;28;20455;-76
2022/06/30 00:06:25;;;;;;;11.37;7.00;;;18.60;99.90;;;;;;5012453;28;20433;-76
2022/06/30 00:08:52;;;;;;;10.73;5.97;;;18.60;99.90;;;;;;5012407;28;20200;-75
2022/06/30 00:11:18;;;;;;;7.97;6.50;;;18.60;99.90;;;;;;5011170;28;21052;-75
2022/06/30 00:13:44;;;;;;;7.90;6.40;;;18.50;99.90;;;;;;4994655;28;20486;-75
2022/06/30 00:16:10;;;;;;;7.67;6.03;;;18.60;99.90;;;;;;4995387;28;20432;-76
2022/06/30 00:18:36;;;;;;;7.90;6.10;;;18.50;99.90;;;;;;4978117;28;20192;-75
2022/06/30 00:21:03;;;;;;;6.87;6.23;;;18.60;99.90;;;;;;4994105;28;20185;-75
2022/06/30 00:23:29;;;;;;;8.73;6.13;;;18.50;99.90;;;;;;5011715;28;20796;-76
2022/06/30 00:25:54;;;;;;;7.70;6.73;;;18.60;99.90;;;;;;5011396;28;20444;-76
2022/06/30 00:28:20;;;;;;;11.83;7.43;;;18.50;99.90;;;;;;4993716;28;20266;-76
2022/06/30 00:30:51;;;;;;;10.10;6.37;;;18.40;99.90;;;;;;5010821;28;20283;-76
2022/06/30 00:33:17;;;;;;;8.90;5.97;;;18.40;99.90;;;;;;4992930;28;20428;-75
2022/06/30 00:35:43;;;;;;;6.27;5.70;;;18.50;99.90;;;;;;4992689;28;20541;-75
2022/06/30 00:38:09;;;;;;;10.30;6.30;;;18.60;99.90;;;;;;5010453;28;20549;-76
2022/06/30 00:40:36;;;;;;;7.63;7.00;;;18.50;99.90;;;;;;5010605;28;20425;-76
2022/06/30 00:43:02;;;;;;;13.23;7.23;;;18.60;99.90;;;;;;4992877;28;20468;-76
2022/06/30 00:45:28;;;;;;;7.70;6.33;;;18.50;99.90;;;;;;5010424;28;20490;-76
2022/06/30 00:47:54;;;;;;;10.70;6.23;;;18.40;99.90;;;;;;5010368;28;20538;-76
2022/06/30 00:50:22;;;;;;;8.40;5.67;;;18.30;99.90;;;;;;5010281;28;20186;-76
2022/06/30 00:52:50;;;;;;;9.57;6.23;;;18.30;99.90;;;;;;4992400;28;20685;-76
2022/06/30 00:55:17;;;;;;;7.97;5.53;;;18.30;99.90;;;;;;5010047;28;20474;-76
2022/06/30 00:57:43;;;;;;;6.20;5.60;;;18.40;99.90;;;;;;4992788;28;20412;-76
2022/06/30 01:00:11;;;;;;;8.53;5.90;;;18.40;99.90;;;;;;4992568;28;20420;-75
2022/06/30 01:02:37;;;;;;;9.70;6.33;;;18.50;99.90;;;;;;4976042;28;20958;-76
2022/06/30 01:05:04;;;;;;;9.03;6.10;;;18.50;99.90;;;;;;5010089;28;20866;-75
2022/06/30 01:07:30;;;;;;;6.63;5.40;;;18.50;99.90;;;;;;5010121;28;20417;-75
2022/06/30 01:12:43;;;;;;;8.10;6.57;;;18.50;99.90;;;;;;5010449;28;20979;-76
2022/06/30 01:15:11;;;;;;;12.60;7.47;;;18.40;99.90;;;;;;5009842;28;20474;-75
2022/06/30 01:17:37;;;;;;;9.43;7.37;;;18.30;99.90;;;;;;4992071;28;20424;-77
2022/06/30 01:20:03;;;;;;;7.17;6.37;;;18.20;99.90;;;;;;5010500;28;20481;-76
2022/06/30 01:22:29;;;;;;;9.93;6.40;;;18.20;99.90;;;;;;4991826;28;20195;-77
2022/06/30 01:24:54;;;;;;;7.03;6.43;;;18.20;99.90;;;;;;4992345;28;20838;-76
2022/06/30 01:27:20;;;;;;;9.70;7.40;;;18.20;99.90;;;;;;5009823;28;20655;-76
2022/06/30 01:29:47;;;;;;;12.60;7.30;;;18.10;99.90;;;;;;5009831;28;20194;-76
2022/06/30 01:32:12;;;;;;;6.83;6.13;;;18.00;99.90;;;;;;5009722;28;20182;-76
2022/06/30 01:34:38;;;;;;;9.47;6.00;;;18.10;99.90;;;;;;4991684;28;20492;-76
2022/06/30 01:37:04;;;;;;;14.53;7.40;;;18.10;99.90;;;;;;4992021;28;20223;-76
2022/06/30 01:39:30;;;;;;;9.37;6.23;;;18.00;99.90;;;;;;4991838;28;20210;-76
2022/06/30 01:41:56;;;;;;;7.40;6.67;;;18.00;99.90;;;;;;5009852;28;20419;-76
2022/06/30 01:44:22;;;;;;;8.00;7.27;;;18.00;99.90;;;;;;4992024;28;20872;-75
2022/06/30 01:46:49;;;;;;;7.30;6.10;;;18.00;99.90;;;;;;4975406;28;20426;-77
2022/06/30 01:49:15;;;;;;;7.73;6.50;;;18.00;99.90;;;;;;5009560;28;20193;-76
2022/06/30 01:51:41;;;;;;;11.43;6.83;;;17.90;99.90;;;;;;5009488;28;20497;-75
2022/06/30 01:54:11;;;;;;;7.93;7.00;;;17.90;99.90;;;;;;5009152;28;21382;-76
2022/06/30 01:56:37;;;;;;;10.83;7.07;;;17.90;99.90;;;;;;5009394;28;20812;-76
2022/06/30 01:59:04;;;;;;;7.30;6.60;;;17.80;99.90;;;;;;5009480;28;20427;-76
2022/06/30 02:01:30;;;;;;;11.77;6.40;;;17.80;99.90;;;;;;4991496;28;20440;-76
2022/06/30 02:03:56;;;;;;;10.03;7.40;;;17.80;99.90;;;;;;5008987;28;20454;-76
2022/06/30 02:06:22;;;;;;;7.17;6.47;;;17.70;99.90;;;;;;5009075;28;20425;-76
2022/06/30 02:08:48;;;;;;;12.20;6.57;;;17.70;99.90;;;;;;5009192;28;20187;-76
2022/06/30 02:11:13;;;;;;;14.43;7.37;;;17.70;99.90;;;;;;4974939;28;20469;-76
2022/06/30 02:13:39;;;;;;;10.20;6.57;;;17.60;99.90;;;;;;5011117;28;20191;-77
2022/06/30 02:16:07;;;;;;;8.17;7.37;;;17.60;99.90;;;;;;5009272;28;20186;-75
2022/06/30 02:18:32;;;;;;;8.33;6.97;;;17.60;99.90;;;;;;5008157;28;20647;-75
2022/06/30 02:20:58;;;;;;;9.53;7.10;;;17.60;99.90;;;;;;4990974;28;20434;-75
2022/06/30 02:23:24;;;;;;;12.87;7.87;;;17.60;99.90;;;;;;5008884;28;20212;-75
2022/06/30 02:25:50;;;;;;;7.63;6.37;;;17.60;99.90;;;;;;5008624;28;20208;-75
2022/06/30 02:28:15;;;;;;;11.77;7.10;;;17.40;99.90;;;;;;4990623;28;20184;-75
2022/06/30 02:30:41;;;;;;;7.60;6.80;;;17.40;99.90;;;;;;4991010;28;20276;-76
2022/06/30 02:33:06;;;;;;;9.43;6.20;;;17.30;99.90;;;;;;4991283;28;20177;-76
2022/06/30 02:35:32;;;;;;;9.60;8.20;;;17.30;99.90;;;;;;5012534;28;20561;-76
2022/06/30 02:37:58;;;;;;;8.20;7.30;;;17.30;99.90;;;;;;5012874;28;20186;-76
2022/06/30 02:40:23;;;;;;;10.00;8.10;;;17.30;99.90;;;;;;4994899;28;20208;-75
2022/06/30 02:42:49;;;;;;;8.00;6.93;;;17.30;99.90;;;;;;4995052;28;20194;-75
2022/06/30 02:45:15;;;;;;;11.30;8.10;;;17.30;99.90;;;;;;4978663;28;20236;-75
2022/06/30 02:47:42;;;;;;;11.13;7.00;;;17.30;99.90;;;;;;4995128;28;20188;-75
2022/06/30 02:50:10;;;;;;;7.90;6.60;;;17.30;99.90;;;;;;4995159;28;20189;-75
2022/06/30 02:52:37;;;;;;;9.13;7.50;;;17.30;99.90;;;;;;4995342;28;20426;-77
2022/06/30 02:55:04;;;;;;;9.40;7.50;;;17.30;99.90;;;;;;4994728;28;20478;-76
2022/06/30 02:57:30;;;;;;;8.10;7.30;;;17.20;99.90;;;;;;5012633;28;20410;-76
2022/06/30 02:59:56;;;;;;;14.93;8.47;;;17.10;99.90;;;;;;4978776;28;20480;-76
2022/06/30 03:02:21;;;;;;;13.07;7.70;;;17.10;99.90;;;;;;4994527;28;20434;-76
2022/06/30 03:04:48;;;;;;;9.53;7.80;;;17.10;99.90;;;;;;4994679;28;20206;-75
2022/06/30 03:07:14;;;;;;;10.20;6.97;;;17.10;99.90;;;;;;5012484;28;20745;-76
2022/06/30 03:09:40;;;;;;;9.93;7.70;;;17.10;99.90;;;;;;5012328;28;20470;-76
2022/06/30 03:12:06;;;;;;;7.60;7.00;;;17.10;99.90;;;;;;4994429;28;20470;-75
2022/06/30 03:14:31;;;;;;;11.70;8.13;;;17.20;99.90;;;;;;5011894;28;20474;-76
2022/06/30 03:16:57;;;;;;;11.33;7.23;;;17.20;99.90;;;;;;5012304;28;20437;-76
2022/06/30 03:19:23;;;;;;;8.90;7.67;;;17.10;99.90;;;;;;5012131;28;20720;-75
2022/06/30 03:21:49;;;;;;;10.47;9.47;;;17.10;99.90;;;;;;5012268;28;20657;-75
2022/06/30 03:24:14;;;;;;;9.73;8.40;;;16.90;99.90;;;;;;5011856;28;20257;-75
2022/06/30 03:26:40;;;;;;;9.47;7.83;;;16.80;99.90;;;;;;4994175;28;20523;-74
2022/06/30 03:29:06;;;;;;;8.77;7.43;;;16.70;99.90;;;;;;5011942;28;20192;-75
2022/06/30 03:31:32;;;;;;;10.83;8.60;;;16.70;99.90;;;;;;4994212;28;20192;-74
2022/06/30 03:33:59;;;;;;;11.27;7.80;;;16.80;99.90;;;;;;5011782;28;21258;-76
2022/06/30 03:36:24;;;;;;;9.10;8.20;;;16.80;99.90;;;;;;5011756;28;20480;-76
2022/06/30 03:38:50;;;;;;;11.67;8.37;;;16.90;99.90;;;;;;4993956;28;20934;-77
2022/06/30 03:41:16;;;;;;;10.97;8.30;;;16.90;99.90;;;;;;4976382;28;21232;-76
2022/06/30 03:43:42;;;;;;;9.03;7.90;;;16.90;99.90;;;;;;4992606;28;20184;-77
2022/06/30 03:46:08;;;;;;;8.60;7.80;;;17.00;99.90;;;;;;4992347;28;20192;-76
2022/06/30 03:48:35;;;;;;;9.83;7.67;;;17.10;99.90;;;;;;5010048;28;20950;-76
2022/06/30 03:51:02;;;;;;;8.10;7.30;;;17.10;99.90;;;;;;4976322;28;20222;-76
2022/06/30 03:53:28;;;;;;;10.37;7.87;;;17.10;99.90;;;;;;4992517;28;20459;-76
2022/06/30 03:55:54;;;;;;;13.97;8.57;;;17.10;99.90;;;;;;4992072;28;20509;-76
2022/06/30 03:58:19;;;;;;;12.00;8.93;;;17.20;99.90;;;;;;5010479;28;20430;-76
2022/06/30 04:00:45;;;;;;;11.20;7.33;;;17.10;99.90;;;;;;5010981;28;20230;-76
2022/06/30 04:03:10;;;;;;;14.00;7.43;;;17.10;99.90;;;;;;4992750;28;20662;-76
2022/06/30 04:05:38;;;;;;;13.53;8.43;;;17.20;99.90;;;;;;4992945;28;20870;-76
2022/06/30 04:08:04;;;;;;;11.20;7.60;;;17.20;99.90;;;;;;5010883;28;20180;-76
2022/06/30 04:10:30;;;;;;;8.90;8.10;;;17.30;99.90;;;;;;4976659;28;20426;-76
2022/06/30 04:12:55;;;;;;;11.20;7.70;;;17.30;99.90;;;;;;4977491;28;20438;-77
2022/06/30 04:15:21;;;;;;;12.30;7.70;;;17.30;99.90;;;;;;5010270;28;20274;-77
2022/06/30 04:17:47;;;;;;;9.80;8.60;;;17.40;99.90;;;;;;4992658;28;20194;-76
2022/06/30 04:20:18;;;;;;;8.20;6.87;;;17.50;99.90;;;;;;4992292;28;20190;-77
2022/06/30 04:22:48;;;;;;;14.07;7.90;;;17.60;99.90;;;;;;4992396;28;20216;-77
2022/06/30 04:25:15;;;;;;;9.80;7.57;;;17.60;99.90;;;;;;4976665;28;20460;-77
2022/06/30 04:27:47;;;;;;;9.93;8.10;;;17.70;99.90;;;;;;5010095;28;20420;-77
2022/06/30 04:30:14;;;;;;;9.50;8.50;;;17.70;99.90;;;;;;5010343;28;20402;-76
2022/06/30 04:32:40;;;;;;;9.03;8.13;;;17.80;99.90;;;;;;5010086;28;20432;-76
2022/06/30 04:35:11;;;;;;;11.40;7.50;;;17.80;99.90;;;;;;4992284;28;20502;-77
2022/06/30 04:37:37;;;;;;;8.10;7.40;;;17.90;99.90;;;;;;4992820;28;20931;-77
2022/06/30 04:42:48;;;;;;;10.63;7.50;;;18.10;99.90;;;;;;5011032;28;20407;-77
2022/06/30 04:45:14;;;;;;;10.27;7.30;;;18.10;99.90;;;;;;5010864;28;20439;-77
2022/06/30 04:47:40;;;;;;;8.37;7.20;;;18.20;99.90;;;;;;4992787;28;20225;-77
2022/06/30 04:50:06;;;;;;;8.40;7.70;;;18.20;99.90;;;;;;5010382;28;20657;-77
2022/06/30 04:52:33;;;;;;;12.57;8.33;;;18.30;99.90;;;;;;4992256;28;20245;-77
2022/06/30 04:54:58;;;;;;;8.50;7.17;;;18.30;99.90;;;;;;4992137;28;20463;-77
2022/06/30 04:57:24;;;;;;;13.00;7.77;;;18.40;99.90;;;;;;4991991;28;20779;-77
2022/06/30 04:59:50;;;;;;;7.53;6.77;;;18.40;99.90;;;;;;5010073;28;20666;-77
2022/06/30 05:02:15;;;;;;;7.20;6.50;;;18.50;99.90;;;;;;4992619;28;20590;-77
2022/06/30 05:04:43;;;;;;;10.23;7.90;;;18.70;99.90;;;;;;4992056;28;20207;-77
2022/06/30 05:07:09;;;;;;;10.43;7.00;;;18.70;99.90;;;;;;4976346;28;20189;-78
2022/06/30 05:09:35;;;;;;;6.93;6.23;;;18.80;99.90;;;;;;4992118;28;20438;-78
2022/06/30 05:12:01;;;;;;;9.67;7.83;;;19.00;99.90;;;;;;5009937;28;20804;-78
2022/06/30 05:14:26;;;;;;;9.23;6.20;;;19.00;99.90;;;;;;4976781;28;20769;-78
2022/06/30 05:16:52;;;;;;;9.97;7.20;;;19.20;99.90;;;;;;4977873;28;20188;-78
2022/06/30 05:19:17;;;;;;;8.73;7.10;;;19.20;99.90;;;;;;4993930;28;20625;-79
2022/06/30 05:21:43;;;;;;;9.07;7.70;;;19.30;99.90;;;;;;5011462;28;20197;-78
2022/06/30 05:26:52;;;;;;;13.30;7.50;;;19.30;99.90;;;;;;5012425;28;20228;-77
2022/06/30 05:29:18;;;;;;;9.20;8.17;;;19.40;99.90;;;;;;4994589;28;20870;-78
2022/06/30 05:31:44;;;;;;;13.50;7.20;;;19.50;99.90;;;;;;4995979;28;20187;-79
2022/06/30 05:34:09;;;;;;;8.03;7.33;;;19.60;99.90;;;;;;4996082;28;20291;-78
2022/06/30 05:36:35;;;;;;;8.77;7.70;;;19.70;99.90;;;;;;4980707;28;20263;-78
2022/06/30 05:39:00;;;;;;;9.70;7.83;;;19.70;99.90;;;;;;5012087;28;20205;-78
2022/06/30 05:41:26;;;;;;;14.93;7.47;;;19.80;99.90;;;;;;4977889;28;20203;-78
2022/06/30 05:43:52;;;;;;;9.07;7.87;;;20.00;99.90;;;;;;4992731;28;20640;-78
2022/06/30 05:46:18;;;;;;;8.13;7.27;;;20.20;99.90;;;;;;4992929;28;20177;-78
2022/06/30 05:48:44;;;;;;;7.17;6.47;;;20.30;99.90;;;;;;4992718;28;20465;-78
2022/06/30 05:51:09;;;;;;;8.40;7.53;;;20.50;99.90;;;;;;4991744;28;20838;-78
2022/06/30 05:53:35;;;;;;;6.50;5.83;;;20.60;99.90;;;;;;4974714;28;20275;-78
2022/06/30 05:56:01;;;;;;;8.37;7.47;;;20.90;99.90;;;;;;4990864;28;20268;-78
2022/06/30 05:58:27;;;;;;;11.70;6.67;;;21.00;99.90;;;;;;4974322;28;20428;-78
2022/06/30 06:00:53;;;;;;;7.83;7.13;;;20.90;99.90;;;;;;4974327;28;20189;-78
2022/06/30 06:03:18;;;;;;;8.90;6.97;;;21.00;99.90;;;;;;4990997;28;20227;-78
2022/06/30 06:05:44;;;;;;;10.73;6.47;;;21.00;99.90;;;;;;4990934;28;20784;-78
2022/06/30 06:08:12;;;;;;;8.37;6.70;;;21.00;99.90;;;;;;4989957;28;20653;-78
2022/06/30 06:10:38;;;;;;;13.17;7.17;;;21.10;99.90;;;;;;4990570;28;20241;-78
2022/06/30 06:13:05;;;;;;;10.63;6.70;;;21.20;99.90;;;;;;5008935;28;20428;-77
2022/06/30 06:15:31;;;;;;;11.53;7.00;;;21.30;99.90;;;;;;5009168;28;20911;-77
2022/06/30 06:17:57;;;;;;;9.27;7.47;;;21.60;99.90;;;;;;5008875;28;20427;-77
2022/06/30 06:20:23;;;;;;;8.10;7.00;;;21.60;99.90;;;;;;4974662;28;21035;-77
2022/06/30 06:22:49;;;;;;;9.30;5.90;;;21.80;99.90;;;;;;5008022;28;20420;-77
2022/06/30 06:25:15;;;;;;;12.33;6.60;;;21.90;99.90;;;;;;4990195;28;21261;-77
2022/06/30 06:27:42;;;;;;;8.60;6.20;;;22.10;99.90;;;;;;5007659;28;20184;-77
2022/06/30 06:30:10;;;;;;;11.70;5.90;;;22.30;99.90;;;;;;5007557;28;20423;-77
2022/06/30 06:32:36;;;;;;;6.20;5.40;;;22.40;99.90;;;;;;5007714;28;20500;-75
2022/06/30 06:35:05;;;;;;;7.40;5.80;;;22.50;99.90;;;;;;5007424;28;20825;-77
2022/06/30 06:37:31;;;;;;;10.33;6.53;;;22.60;99.90;;;;;;4989976;28;20792;-77
2022/06/30 06:39:56;;;;;;;8.63;6.93;;;22.70;99.90;;;;;;4989596;28;20447;-77
2022/06/30 06:42:22;;;;;;;9.50;5.50;;;22.70;99.90;;;;;;4990091;28;20189;-77
2022/06/30 06:44:48;;;;;;;7.23;6.07;;;22.80;99.90;;;;;;5008137;28;20208;-77
2022/06/30 06:47:15;;;;;;;9.13;6.37;;;22.80;99.90;;;;;;5008413;28;20185;-77
2022/06/30 06:49:43;;;;;;;7.10;6.40;;;22.80;99.90;;;;;;5008435;28;20457;-77
2022/06/30 06:52:09;;;;;;;13.13;6.53;;;22.90;99.90;;;;;;5007664;28;20470;-77
2022/06/30 06:54:34;;;;;;;7.13;5.47;;;22.90;99.90;;;;;;4990183;28;20469;-77
2022/06/30 06:57:00;;;;;;;5.83;5.30;;;23.10;99.90;;;;;;4990134;28;20419;-77
2022/06/30 06:59:26;;;;;;;9.17;6.10;;;23.30;99.90;;;;;;4990031;28;20629;-77
2022/06/30 07:01:51;;;;;;;7.27;5.70;;;23.30;99.90;;;;;;4990541;28;20557;-77
2022/06/30 07:04:17;;;;;;;9.63;6.23;;;23.30;99.90;;;;;;4990293;28;20217;-77
2022/06/30 07:06:43;;;;;;;7.67;5.80;;;23.40;99.90;;;;;;4974029;28;20815;-76
2022/06/30 07:09:09;;;;;;;11.53;6.10;;;23.40;99.90;;;;;;4990304;28;20231;-77
2022/06/30 07:11:34;;;;;;;8.30;5.47;;;23.50;99.90;;;;;;4989967;28;20541;-77
2022/06/30 07:14:00;;;;;;;7.03;4.90;;;23.60;99.90;;;;;;5007685;28;20929;-76
2022/06/30 07:16:26;;;;;;;9.60;6.17;;;23.70;99.90;;;;;;5007552;28;20273;-76
2022/06/30 07:18:52;;;;;;;9.40;5.90;;;23.80;99.90;;;;;;5007640;28;20187;-76
2022/06/30 07:21:17;;;;;;;9.27;5.80;;;23.90;99.90;;;;;;4977341;28;20294;-77
2022/06/30 07:23:43;;;;;;;10.73;6.40;;;24.00;99.90;;;;;;4993394;28;20415;-77
2022/06/30 07:26:11;;;;;;;7.80;5.90;;;24.00;99.90;;;;;;4977137;28;20200;-75
2022/06/30 07:28:37;;;;;;;8.30;5.93;;;24.00;99.90;;;;;;5011109;28;20217;-76
2022/06/30 07:31:02;;;;;;;12.23;5.60;;;24.10;99.90;;;;;;4993063;28;21130;-76
2022/06/30 07:33:28;;;;;;;8.50;5.53;;;24.30;99.90;;;;;;5010476;28;20244;-77
2022/06/30 07:35:54;;;;;;;7.93;6.03;;;24.30;99.90;;;;;;5010378;28;20224;-76
2022/06/30 07:38:19;;;;;;;7.57;6.03;;;24.50;99.90;;;;;;5010021;28;20204;-77
2022/06/30 07:40:45;;;;;;;8.10;6.10;;;24.50;99.90;;;;;;4992352;28;20534;-76
2022/06/30 07:43:11;;;;;;;6.43;5.90;;;24.50;99.90;;;;;;5010146;28;20184;-76
2022/06/30 07:45:37;;;;;;;6.63;5.03;;;24.50;99.90;;;;;;5010275;28;20206;-76
2022/06/30 07:48:03;;;;;;;9.27;6.27;;;24.60;99.90;;;;;;5009971;28;20481;-76
2022/06/30 07:50:29;;;;;;;6.50;5.00;;;24.70;99.90;;;;;;5010213;28;20643;-76
2022/06/30 07:52:55;;;;;;;16.07;5.63;;;24.70;99.90;;;;;;5009703;28;20419;-76
2022/06/30 07:55:20;;;;;;;15.37;7.70;;;24.70;99.90;;;;;;4991668;28;20518;-76
2022/06/30 07:57:47;;;;;;;13.07;5.97;;;24.80;99.90;;;;;;4992215;28;20184;-76
2022/06/30 08:00:13;;;;;;;8.73;5.50;;;24.80;99.90;;;;;;5009739;28;20748;-76
2022/06/30 08:02:39;;;;;;;7.53;6.13;;;25.00;99.90;;;;;;4991791;28;20424;-76
2022/06/30 08:05:06;;;;;;;7.20;5.80;;;25.20;99.90;;;;;;4991567;28;20484;-76
2022/06/30 08:07:32;;;;;;;10.73;6.50;;;25.20;99.90;;;;;;5009387;28;20427;-76
2022/06/30 08:09:58;;;;;;;6.93;5.60;;;25.20;99.90;;;;;;5009431;28;20423;-76
2022/06/30 08:12:23;;;;;;;14.57;5.23;;;25.20;99.90;;;;;;5009408;28;20450;-76
2022/06/30 08:14:49;;;;;;;11.83;5.37;;;25.30;99.90;;;;;;5009415;28;20306;-76
2022/06/30 08:17:15;;;;;;;10.93;5.60;;;25.40;99.90;;;;;;5010454;28;20185;-76
2022/06/30 08:19:41;;;;;;;9.87;6.40;;;25.30;99.90;;;;;;5009417;28;20188;-76
2022/06/30 08:22:07;;;;;;;12.00;5.60;;;25.40;99.90;;;;;;5009310;28;20751;-76
2022/06/30 08:24:33;;;;;;;8.13;5.80;;;25.40;99.90;;;;;;5009079;28;20462;-76
2022/06/30 08:27:02;;;;;;;11.93;6.33;;;25.30;99.90;;;;;;5009267;28;20432;-76
2022/06/30 08:29:33;;;;;;;10.67;6.70;;;25.10;99.90;;;;;;4991405;28;20222;-76
2022/06/30 08:32:00;;;;;;;10.60;6.60;;;25.00;99.90;;;;;;5008064;28;20425;-76
2022/06/30 08:34:26;;;;;;;6.57;5.97;;;24.90;99.90;;;;;;5008849;28;20464;-76
2022/06/30 08:36:52;;;;;;;14.90;6.97;;;24.90;99.90;;;;;;4991340;28;20428;-77
2022/06/30 08:42:02;;;;;;;11.30;6.50;;;24.80;99.90;;;;;;5009622;28;20231;-76
2022/06/30 08:44:34;;;;;;;9.33;6.20;;;25.10;99.90;;;;;;5009070;28;20450;-76
2022/06/30 08:47:01;;;;;;;10.20;5.90;;;25.40;99.90;;;;;;4991215;28;20435;-76
2022/06/30 08:49:28;;;;;;;6.83;5.93;;;25.40;99.90;;;;;;5009655;28;20432;-76
2022/06/30 08:51:56;;;;;;;8.40;6.20;;;25.50;99.90;;;;;;5009444;28;20431;-76
2022/06/30 08:54:22;;;;;;;11.33;5.87;;;25.80;99.90;;;;;;4991746;28;20904;-76
2022/06/30 08:56:50;;;;;;;6.73;5.90;;;26.00;99.90;;;;;;5009642;28;20509;-76
2022/06/30 08:59:17;;;;;;;8.87;5.50;;;26.10;99.90;;;;;;5009150;28;20430;-76
2022/06/30 09:01:43;;;;;;;8.10;5.10;;;26.30;99.90;;;;;;4991586;28;20420;-76
2022/06/30 09:04:13;;;;;;;5.57;5.07;;;26.60;99.90;;;;;;4991155;28;20752;-76
2022/06/30 09:06:43;;;;;;;7.20;5.07;;;26.70;99.90;;;;;;5009035;28;20427;-76
2022/06/30 09:09:09;;;;;;;8.73;4.83;;;27.00;99.90;;;;;;5009131;28;20473;-76
2022/06/30 09:11:53;;;;;;;13.23;5.13;;;27.40;99.90;;;;;;5008950;28;20494;-76
2022/06/30 09:14:47;;;;;;;7.03;4.60;;;27.80;99.90;;;;;;4990856;28;20474;-76
2022/06/30 09:17:14;;;;;;;6.90;4.80;;;28.00;99.90;;;;;;5005114;28;20816;-76
2022/06/30 09:20:01;;;;;;;5.97;4.70;;;27.90;99.90;;;;;;5008808;28;20917;-76
2022/06/30 09:22:29;;;;;;;5.73;5.10;;;28.10;99.90;;;;;;5008900;28;20834;-76
2022/06/30 09:25:02;;;;;;;5.43;4.93;;;28.40;99.90;;;;;;5009133;28;20654;-76
2022/06/30 09:27:31;;;;;;;7.67;4.83;;;28.70;99.90;;;;;;4991500;28;20425;-76
2022/06/30 09:30:09;;;;;;;6.83;4.70;;;28.90;99.90;;;;;;4990108;28;20545;-76
2022/06/30 09:32:52;;;;;;;6.83;5.17;;;29.20;99.90;;;;;;4991936;28;20513;-76
2022/06/30 09:35:38;;;;;;;6.10;4.70;;;29.50;99.90;;;;;;5008019;28;20467;-76
2022/06/30 09:38:06;;;;;;;4.87;4.40;;;29.60;99.90;;;;;;5008286;28;20412;-76
2022/06/30 09:41:02;;;;;;;8.30;4.83;;;29.50;99.90;;;;;;4990152;28;20822;-76
2022/06/30 09:43:37;;;;;;;6.37;4.63;;;29.80;99.90;;;;;;4993411;28;20856;-76
2022/06/30 09:46:06;;;;;;;10.40;4.93;;;30.00;99.90;;;;;;5007856;28;20450;-76
2022/06/30 09:48:33;;;;;;;8.67;4.23;;;30.30;99.90;;;;;;4990164;28;20507;-76
2022/06/30 09:51:00;;;;;;;5.63;4.13;;;30.70;98.90;;;;;;5008079;28;20421;-76
2022/06/30 09:53:26;;;;;;;6.23;4.10;;;30.80;97.00;;;;;;5008109;28;20478;-76
2022/06/30 09:55:52;;;;;;;5.10;4.70;;;30.50;99.90;;;;;;4990093;28;20570;-76
2022/06/30 09:58:30;;;;;;;6.87;4.30;;;30.20;99.40;;;;;;4990192;28;20527;-76
2022/06/30 10:00:58;;;;;;;5.87;3.93;;;30.40;99.80;;;;;;4990063;28;20184;-76
2022/06/30 10:03:23;;;;;;;6.93;3.60;;;30.80;97.40;;;;;;4990317;28;20436;-76
2022/06/30 10:05:51;;;;;;;10.73;4.33;;;31.10;94.00;;;;;;4990242;28;20446;-76
2022/06/30 10:08:18;;;;;;;6.63;4.23;;;31.40;94.50;;;;;;5007818;28;20650;-76
2022/06/30 10:10:45;;;;;;;4.93;3.73;;;31.60;94.90;;;;;;5007882;28;20416;-76
2022/06/30 10:13:16;;;;;;;4.40;4.10;;;31.20;93.30;;;;;;5008119;28;20424;-76
2022/06/30 10:15:47;;;;;;;7.47;4.27;;;30.50;94.20;;;;;;5007705;28;20482;-76
2022/06/30 10:18:15;;;;;;;10.90;5.27;;;30.50;96.40;;;;;;4990679;28;20515;-76
2022/06/30 10:20:41;;;;;;;5.90;3.90;;;30.80;95.70;;;;;;4990180;28;20428;-75
2022/06/30 10:23:08;;;;;;;6.70;4.80;;;31.20;95.40;;;;;;5008851;28;20419;-76
2022/06/30 10:25:36;;;;;;;6.87;4.53;;;31.50;93.10;;;;;;5007715;28;20945;-76
2022/06/30 10:28:03;;;;;;;9.50;3.80;;;31.70;93.30;;;;;;5007899;28;20427;-76
2022/06/30 10:30:43;;;;;;;5.53;3.90;;;32.00;92.90;;;;;;4973578;28;20499;-76
2022/06/30 10:33:37;;;;;;;5.13;4.07;;;32.10;92.70;;;;;;4989962;28;20428;-76
2022/06/30 10:36:21;;;;;;;8.37;3.77;;;32.00;91.90;;;;;;5007188;28;20470;-77
2022/06/30 10:38:54;;;;;;;12.40;5.03;;;32.10;89.30;;;;;;5007452;28;20438;-77
2022/06/30 10:41:23;;;;;;;4.23;3.47;;;32.30;91.50;;;;;;5007479;28;20416;-76
2022/06/30 10:44:04;;;;;;;7.67;3.87;;;32.30;88.50;;;;;;5007182;28;20455;-75
2022/06/30 10:46:51;;;;;;;4.33;3.93;;;32.60;87.40;;;;;;4988877;28;20415;-76
2022/06/30 10:49:17;;;;;;;6.70;4.37;;;32.60;90.50;;;;;;4989034;28;20443;-77
2022/06/30 10:51:44;;;;;;;6.63;3.80;;;32.60;88.40;;;;;;4989432;28;20944;-77
2022/06/30 10:54:26;;;;;;;4.03;3.40;;;32.70;88.30;;;;;;5007135;28;21244;-76
2022/06/30 10:56:51;;;;;;;3.80;3.47;;;32.80;87.50;;;;;;4995457;28;20427;-76
2022/06/30 10:59:28;;;;;;;5.30;4.00;;;33.00;83.30;;;;;;5010902;28;20416;-77
2022/06/30 11:02:12;;;;;;;3.80;3.40;;;33.00;82.00;;;;;;5010884;28;20208;-76
2022/06/30 11:04:38;;;;;;;7.30;3.20;;;33.00;84.30;;;;;;4993361;28;20968;-78
2022/06/30 11:07:08;;;;;;;3.53;3.03;;;33.10;86.40;;;;;;4994031;28;20813;-78
2022/06/30 11:09:49;;;;;;;7.87;3.20;;;33.10;82.10;;;;;;4994047;28;20432;-78
2022/06/30 11:12:20;;;;;;;3.73;3.40;;;33.00;83.10;;;;;;5012047;28;20494;-78
2022/06/30 11:14:51;;;;;;;3.50;3.20;;;33.00;82.70;;;;;;5011856;28;20589;-79
2022/06/30 11:17:19;;;;;;;6.77;3.30;;;33.00;82.80;;;;;;5011822;28;20427;-79
2022/06/30 11:19:46;;;;;;;5.37;3.50;;;33.30;81.30;;;;;;5012130;28;20420;-79
2022/06/30 11:22:18;;;;;;;7.57;3.80;;;33.40;82.50;;;;;;5012741;28;20795;-79
2022/06/30 11:24:49;;;;;;;3.33;3.03;;;33.80;84.30;;;;;;5012268;28;20451;-79
2022/06/30 11:27:20;;;;;;;5.40;3.50;;;33.90;79.70;;;;;;5012817;28;20427;-79
2022/06/30 11:29:46;;;;;;;3.80;3.40;;;33.40;82.60;;;;;;5012496;28;20877;-79
2022/06/30 11:32:12;;;;;;;5.57;3.30;;;33.30;80.30;;;;;;5012227;28;20995;-79
2022/06/30 11:34:40;;;;;;;5.13;2.90;;;33.10;78.40;;;;;;4995185;28;20951;-78
2022/06/30 11:37:10;;;;;;;4.13;2.90;;;32.90;74.50;;;;;;5014743;28;20205;-78
2022/06/30 11:39:36;;;;;;;5.87;3.27;;;32.90;77.50;;;;;;4999779;28;20455;-78
2022/06/30 11:42:11;;;;;;;4.80;2.80;;;32.70;77.10;;;;;;5015487;28;20443;-78
2022/06/30 11:44:40;;;;;;;3.20;2.90;;;32.70;73.70;;;;;;5014205;28;20501;-78
2022/06/30 11:47:11;;;;;;;6.10;3.57;;;32.40;75.70;;;;;;4979212;28;20905;-77
2022/06/30 11:49:44;;;;;;;5.27;3.90;;;32.40;76.50;;;;;;4995539;28;20440;-76
2022/06/30 11:52:28;;;;;;;6.70;3.50;;;32.20;73.90;;;;;;4993325;28;20430;-76
2022/06/30 11:55:06;;;;;;;8.77;3.20;;;32.40;78.20;;;;;;5010679;28;21046;-76
2022/06/30 11:57:35;;;;;;;3.47;3.00;;;32.40;72.70;;;;;;5010831;28;20449;-76
2022/06/30 12:00:20;;;;;;;4.27;2.97;;;32.50;72.30;;;;;;4992724;28;20943;-76
2022/06/30 12:02:46;;;;;;;4.40;3.30;;;32.50;72.30;;;;;;4992603;28;20467;-76
2022/06/30 12:05:18;;;;;;;4.30;3.33;;;32.60;72.70;;;;;;4992642;28;20482;-76
2022/06/30 12:07:46;;;;;;;3.43;3.13;;;32.40;71.20;;;;;;5009973;28;20519;-76
2022/06/30 12:10:15;;;;;;;5.10;3.50;;;32.00;74.90;;;;;;5010768;28;20434;-76
2022/06/30 12:12:42;;;;;;;5.30;3.87;;;31.70;74.00;;;;;;5010676;28;20490;-76
2022/06/30 12:15:14;;;;;;;4.30;3.60;;;31.40;78.50;;;;;;4993391;28;20937;-75
2022/06/30 12:17:52;;;;;;;4.77;3.37;;;31.40;76.00;;;;;;4992400;28;20482;-75
2022/06/30 12:20:19;;;;;;;5.30;4.17;;;31.30;75.10;;;;;;5010361;28;20432;-74
2022/06/30 12:22:50;;;;;;;5.73;3.67;;;31.30;75.30;;;;;;4992769;28;20424;-74
2022/06/30 12:25:17;;;;;;;4.10;3.30;;;31.30;79.30;;;;;;5015482;28;20852;-75
2022/06/30 12:27:47;;;;;;;5.87;4.00;;;31.20;80.10;;;;;;5009986;28;20424;-75
2022/06/30 12:30:15;;;;;;;11.60;3.73;;;30.80;79.20;;;;;;5009880;28;20788;-75
2022/06/30 12:32:41;;;;;;;12.63;3.73;;;31.00;80.80;;;;;;4991859;28;20431;-75
2022/06/30 12:35:10;;;;;;;4.70;3.73;;;31.20;80.30;;;;;;5009009;28;20518;-75
2022/06/30 12:37:41;;;;;;;4.20;3.80;;;31.30;78.50;;;;;;5008899;28;20834;-75
2022/06/30 12:40:12;;;;;;;4.83;3.57;;;31.50;78.50;;;;;;4991161;28;20803;-75
2022/06/30 12:42:45;;;;;;;5.97;3.57;;;31.50;76.30;;;;;;4991259;28;20437;-75
2022/06/30 12:45:39;;;;;;;6.20;3.73;;;31.60;74.60;;;;;;4991049;28;20543;-75
2022/06/30 12:48:06;;;;;;;4.63;3.60;;;31.70;74.20;;;;;;4991003;28;20428;-75
2022/06/30 12:50:33;;;;;;;3.43;3.23;;;31.70;76.20;;;;;;5008746;28;20941;-75
2022/06/30 12:53:19;;;;;;;6.80;3.43;;;31.90;78.80;;;;;;5008938;28;20925;-75
2022/06/30 12:56:02;;;;;;;3.97;3.60;;;32.00;78.20;;;;;;5008767;28;20545;-75
2022/06/30 12:58:46;;;;;;;5.50;3.63;;;32.10;75.10;;;;;;4991015;28;20802;-75